logo
Search for airport 
image banner adimage banner adimage banner ad
image banner ad

FAEW - Seaview

Located in , South Africa

ICAO - , IATA -

Data provided by Airmate  

General information

Coordinates: S34°0'3" E25°21'10"
Elevation is 328 feet MSL.
 
View others Airports in Eastern Cape

Operational data

Special qualification required
Current time UTC:
Current local time:
METAR: FAPE 181100Z 24012KT 9999 FEW005 22/16 Q1019 NOSIG
TAF: TAF FAPE 181000Z 1812/1912 24015KT 9999 FEW008 TX25/1912Z TN14/1903Z BECMG 1813/1815 BKN008 BECMG 1819/1821 VRB03KT TEMPO 1820/1906 2000 BR BKN002 PROB30 TEMPO 1900/1905 0500 FG BKN001 BECMG 1908/1910 09012KT CAVOK
View NOTAMs / SUP AIP / TFR affecting this airport [VIEW]
Communications frequencies: [VIEW]

Runways:

RWY identifierQFULength (ft)Width (ft)SurfaceLDA (ft)
09132°459366SAND
27312°459366SAND

Airport contact information

Address: South Africa

Satellite view of FAEW